sensor_id;sensor_type;location;lat;lon;timestamp;P1;durP1;ratioP1;P2;durP2;ratioP2
5591;SDS011;2818;49.790;9.958;2022-11-14T00:01:05;21.60;;;14.50;;
5591;SDS011;2818;49.790;9.958;2022-11-14T00:03:33;20.70;;;14.43;;
5591;SDS011;2818;49.790;9.958;2022-11-14T00:06:03;23.53;;;15.17;;
5591;SDS011;2818;49.790;9.958;2022-11-14T00:08:31;20.13;;;15.13;;
5591;SDS011;2818;49.790;9.958;2022-11-14T00:10:58;24.13;;;15.30;;
5591;SDS011;2818;49.790;9.958;2022-11-14T00:13:25;26.70;;;16.77;;
5591;SDS011;2818;49.790;9.958;2022-11-14T00:15:52;55.00;;;29.60;;
5591;SDS011;2818;49.790;9.958;2022-11-14T00:18:20;58.73;;;31.20;;
5591;SDS011;2818;49.790;9.958;2022-11-14T00:20:50;39.80;;;23.43;;
5591;SDS011;2818;49.790;9.958;2022-11-14T00:23:19;26.80;;;18.37;;
5591;SDS011;2818;49.790;9.958;2022-11-14T00:25:46;24.93;;;16.20;;
5591;SDS011;2818;49.790;9.958;2022-11-14T00:28:13;20.07;;;14.20;;
5591;SDS011;2818;49.790;9.958;2022-11-14T00:30:41;21.53;;;15.10;;
5591;SDS011;2818;49.790;9.958;2022-11-14T00:33:11;24.10;;;16.67;;
5591;SDS011;2818;49.790;9.958;2022-11-14T00:35:52;21.33;;;15.00;;
5591;SDS011;2818;49.790;9.958;2022-11-14T00:38:20;20.40;;;14.60;;
5591;SDS011;2818;49.790;9.958;2022-11-14T00:40:48;23.50;;;14.70;;
5591;SDS011;2818;49.790;9.958;2022-11-14T00:43:15;21.43;;;14.50;;
5591;SDS011;2818;49.790;9.958;2022-11-14T00:45:43;21.43;;;14.70;;
5591;SDS011;2818;49.790;9.958;2022-11-14T00:48:10;19.90;;;15.17;;
5591;SDS011;2818;49.790;9.958;2022-11-14T00:50:37;17.30;;;12.60;;
5591;SDS011;2818;49.790;9.958;2022-11-14T00:53:04;17.20;;;12.67;;
5591;SDS011;2818;49.790;9.958;2022-11-14T00:55:31;17.60;;;12.97;;
5591;SDS011;2818;49.790;9.958;2022-11-14T00:57:57;20.97;;;13.90;;
5591;SDS011;2818;49.790;9.958;2022-11-14T01:00:24;17.47;;;13.20;;
5591;SDS011;2818;49.790;9.958;2022-11-14T01:02:51;21.53;;;13.90;;
5591;SDS011;2818;49.790;9.958;2022-11-14T01:05:22;17.90;;;13.23;;
5591;SDS011;2818;49.790;9.958;2022-11-14T01:07:50;18.13;;;12.90;;
5591;SDS011;2818;49.790;9.958;2022-11-14T01:10:17;19.20;;;13.17;;
5591;SDS011;2818;49.790;9.958;2022-11-14T01:12:44;16.97;;;13.00;;
5591;SDS011;2818;49.790;9.958;2022-11-14T01:15:11;18.90;;;13.57;;
5591;SDS011;2818;49.790;9.958;2022-11-14T01:17:38;18.43;;;13.77;;
5591;SDS011;2818;49.790;9.958;2022-11-14T01:20:05;17.60;;;12.47;;
5591;SDS011;2818;49.790;9.958;2022-11-14T01:22:32;17.77;;;13.60;;
5591;SDS011;2818;49.790;9.958;2022-11-14T01:24:59;20.53;;;14.17;;
5591;SDS011;2818;49.790;9.958;2022-11-14T01:27:29;21.13;;;14.40;;
5591;SDS011;2818;49.790;9.958;2022-11-14T01:29:56;21.30;;;14.27;;
5591;SDS011;2818;49.790;9.958;2022-11-14T01:32:24;20.60;;;13.90;;
5591;SDS011;2818;49.790;9.958;2022-11-14T01:34:51;19.93;;;13.47;;
5591;SDS011;2818;49.790;9.958;2022-11-14T01:37:18;16.80;;;12.80;;
5591;SDS011;2818;49.790;9.958;2022-11-14T01:39:45;19.90;;;13.50;;
5591;SDS011;2818;49.790;9.958;2022-11-14T01:42:12;17.70;;;12.90;;
5591;SDS011;2818;49.790;9.958;2022-11-14T01:44:44;15.33;;;12.40;;
5591;SDS011;2818;49.790;9.958;2022-11-14T01:47:11;18.97;;;13.23;;
5591;SDS011;2818;49.790;9.958;2022-11-14T01:49:43;18.10;;;12.63;;
5591;SDS011;2818;49.790;9.958;2022-11-14T01:52:23;18.10;;;12.53;;
5591;SDS011;2818;49.790;9.958;2022-11-14T01:55:01;19.10;;;12.80;;
5591;SDS011;2818;49.790;9.958;2022-11-14T01:57:37;17.70;;;12.50;;
5591;SDS011;2818;49.790;9.958;2022-11-14T02:00:09;16.10;;;12.47;;
5591;SDS011;2818;49.790;9.958;2022-11-14T02:02:39;17.50;;;12.37;;
5591;SDS011;2818;49.790;9.958;2022-11-14T02:05:09;19.40;;;13.43;;
5591;SDS011;2818;49.790;9.958;2022-11-14T02:07:39;18.17;;;12.90;;
5591;SDS011;2818;49.790;9.958;2022-11-14T02:10:08;18.37;;;12.60;;
5591;SDS011;2818;49.790;9.958;2022-11-14T02:12:41;19.13;;;13.27;;
5591;SDS011;2818;49.790;9.958;2022-11-14T02:15:08;20.80;;;13.97;;
5591;SDS011;2818;49.790;9.958;2022-11-14T02:17:35;17.03;;;12.47;;
5591;SDS011;2818;49.790;9.958;2022-11-14T02:22:31;20.30;;;14.17;;
5591;SDS011;2818;49.790;9.958;2022-11-14T02:24:58;19.53;;;13.70;;
5591;SDS011;2818;49.790;9.958;2022-11-14T02:27:25;17.37;;;13.10;;
5591;SDS011;2818;49.790;9.958;2022-11-14T02:29:52;15.97;;;12.23;;
5591;SDS011;2818;49.790;9.958;2022-11-14T02:32:19;18.40;;;12.93;;
5591;SDS011;2818;49.790;9.958;2022-11-14T02:34:45;18.27;;;12.03;;
5591;SDS011;2818;49.790;9.958;2022-11-14T02:37:12;22.43;;;12.73;;
5591;SDS011;2818;49.790;9.958;2022-11-14T02:39:39;15.37;;;12.23;;
5591;SDS011;2818;49.790;9.958;2022-11-14T02:42:06;16.10;;;12.20;;
5591;SDS011;2818;49.790;9.958;2022-11-14T02:44:33;18.83;;;12.77;;
5591;SDS011;2818;49.790;9.958;2022-11-14T02:46:59;20.50;;;13.87;;
5591;SDS011;2818;49.790;9.958;2022-11-14T02:49:26;19.00;;;12.97;;
5591;SDS011;2818;49.790;9.958;2022-11-14T02:51:53;20.57;;;13.07;;
5591;SDS011;2818;49.790;9.958;2022-11-14T02:54:20;17.47;;;12.53;;
5591;SDS011;2818;49.790;9.958;2022-11-14T02:56:47;78.87;;;38.83;;
5591;SDS011;2818;49.790;9.958;2022-11-14T02:59:14;21.60;;;15.50;;
5591;SDS011;2818;49.790;9.958;2022-11-14T03:01:41;20.00;;;13.50;;
5591;SDS011;2818;49.790;9.958;2022-11-14T03:04:07;18.90;;;13.30;;
5591;SDS011;2818;49.790;9.958;2022-11-14T03:06:34;18.50;;;13.43;;
5591;SDS011;2818;49.790;9.958;2022-11-14T03:09:01;17.07;;;12.70;;
5591;SDS011;2818;49.790;9.958;2022-11-14T03:11:28;19.20;;;13.37;;
5591;SDS011;2818;49.790;9.958;2022-11-14T03:13:56;22.10;;;14.83;;
5591;SDS011;2818;49.790;9.958;2022-11-14T03:16:24;20.43;;;13.80;;
5591;SDS011;2818;49.790;9.958;2022-11-14T03:18:51;19.27;;;14.20;;
5591;SDS011;2818;49.790;9.958;2022-11-14T03:21:19;27.83;;;14.60;;
5591;SDS011;2818;49.790;9.958;2022-11-14T03:23:47;22.47;;;13.70;;
5591;SDS011;2818;49.790;9.958;2022-11-14T03:26:15;18.43;;;12.87;;
5591;SDS011;2818;49.790;9.958;2022-11-14T03:28:41;24.87;;;15.33;;
5591;SDS011;2818;49.790;9.958;2022-11-14T03:31:09;21.67;;;14.57;;
5591;SDS011;2818;49.790;9.958;2022-11-14T03:33:38;23.80;;;14.80;;
5591;SDS011;2818;49.790;9.958;2022-11-14T03:36:05;20.70;;;14.20;;
5591;SDS011;2818;49.790;9.958;2022-11-14T03:38:33;21.47;;;13.67;;
5591;SDS011;2818;49.790;9.958;2022-11-14T03:41:00;24.17;;;15.07;;
5591;SDS011;2818;49.790;9.958;2022-11-14T03:43:31;19.27;;;14.27;;
5591;SDS011;2818;49.790;9.958;2022-11-14T03:45:59;20.60;;;13.90;;
5591;SDS011;2818;49.790;9.958;2022-11-14T03:48:27;19.37;;;13.70;;
5591;SDS011;2818;49.790;9.958;2022-11-14T03:50:55;20.20;;;13.70;;
5591;SDS011;2818;49.790;9.958;2022-11-14T03:53:22;21.23;;;14.10;;
5591;SDS011;2818;49.790;9.958;2022-11-14T03:55:50;19.67;;;13.57;;
5591;SDS011;2818;49.790;9.958;2022-11-14T03:58:17;24.00;;;15.57;;
5591;SDS011;2818;49.790;9.958;2022-11-14T04:00:44;23.97;;;14.57;;
5591;SDS011;2818;49.790;9.958;2022-11-14T04:03:11;22.23;;;14.90;;
5591;SDS011;2818;49.790;9.958;2022-11-14T04:05:38;20.30;;;14.60;;
5591;SDS011;2818;49.790;9.958;2022-11-14T04:08:05;21.97;;;15.10;;
5591;SDS011;2818;49.790;9.958;2022-11-14T04:10:32;26.20;;;15.70;;
5591;SDS011;2818;49.790;9.958;2022-11-14T04:12:59;24.83;;;15.50;;
5591;SDS011;2818;49.790;9.958;2022-11-14T04:15:26;23.17;;;15.20;;
5591;SDS011;2818;49.790;9.958;2022-11-14T04:17:53;24.10;;;15.80;;
5591;SDS011;2818;49.790;9.958;2022-11-14T04:20:20;28.90;;;17.40;;
5591;SDS011;2818;49.790;9.958;2022-11-14T04:22:46;29.77;;;16.10;;
5591;SDS011;2818;49.790;9.958;2022-11-14T04:25:13;25.53;;;16.03;;
5591;SDS011;2818;49.790;9.958;2022-11-14T04:27:40;28.17;;;17.70;;
5591;SDS011;2818;49.790;9.958;2022-11-14T04:30:08;26.47;;;17.20;;
5591;SDS011;2818;49.790;9.958;2022-11-14T04:32:36;28.50;;;16.80;;
5591;SDS011;2818;49.790;9.958;2022-11-14T04:35:02;27.80;;;17.23;;
5591;SDS011;2818;49.790;9.958;2022-11-14T04:37:29;30.33;;;18.63;;
5591;SDS011;2818;49.790;9.958;2022-11-14T04:39:56;32.47;;;19.43;;
5591;SDS011;2818;49.790;9.958;2022-11-14T04:42:26;31.90;;;19.40;;
5591;SDS011;2818;49.790;9.958;2022-11-14T04:44:52;34.00;;;20.00;;
5591;SDS011;2818;49.790;9.958;2022-11-14T04:47:20;38.33;;;20.63;;
5591;SDS011;2818;49.790;9.958;2022-11-14T04:49:46;35.67;;;21.40;;
5591;SDS011;2818;49.790;9.958;2022-11-14T04:52:13;37.63;;;21.00;;
5591;SDS011;2818;49.790;9.958;2022-11-14T04:54:40;39.73;;;21.67;;
5591;SDS011;2818;49.790;9.958;2022-11-14T04:57:07;36.57;;;21.43;;
5591;SDS011;2818;49.790;9.958;2022-11-14T04:59:34;36.27;;;21.23;;
5591;SDS011;2818;49.790;9.958;2022-11-14T05:02:00;37.57;;;21.40;;
5591;SDS011;2818;49.790;9.958;2022-11-14T05:04:27;35.13;;;19.77;;
5591;SDS011;2818;49.790;9.958;2022-11-14T05:06:54;36.37;;;21.63;;
5591;SDS011;2818;49.790;9.958;2022-11-14T05:09:21;37.73;;;21.90;;
5591;SDS011;2818;49.790;9.958;2022-11-14T05:11:48;34.70;;;21.43;;
5591;SDS011;2818;49.790;9.958;2022-11-14T05:14:15;37.13;;;22.03;;
5591;SDS011;2818;49.790;9.958;2022-11-14T05:16:42;37.83;;;21.90;;
5591;SDS011;2818;49.790;9.958;2022-11-14T05:19:08;35.63;;;21.77;;
5591;SDS011;2818;49.790;9.958;2022-11-14T05:21:35;36.90;;;21.57;;
5591;SDS011;2818;49.790;9.958;2022-11-14T05:24:02;37.57;;;21.80;;
5591;SDS011;2818;49.790;9.958;2022-11-14T05:26:29;38.33;;;20.97;;
5591;SDS011;2818;49.790;9.958;2022-11-14T05:28:56;36.27;;;21.73;;
5591;SDS011;2818;49.790;9.958;2022-11-14T05:31:23;125.00;;;63.87;;
5591;SDS011;2818;49.790;9.958;2022-11-14T05:33:50;41.97;;;23.00;;
5591;SDS011;2818;49.790;9.958;2022-11-14T05:36:17;42.00;;;23.43;;
5591;SDS011;2818;49.790;9.958;2022-11-14T05:38:45;39.30;;;22.53;;
5591;SDS011;2818;49.790;9.958;2022-11-14T05:41:13;33.97;;;21.03;;
5591;SDS011;2818;49.790;9.958;2022-11-14T05:43:42;35.63;;;21.50;;
5591;SDS011;2818;49.790;9.958;2022-11-14T05:46:10;35.30;;;20.63;;
5591;SDS011;2818;49.790;9.958;2022-11-14T05:48:39;38.97;;;21.30;;
5591;SDS011;2818;49.790;9.958;2022-11-14T05:51:06;39.53;;;22.40;;
5591;SDS011;2818;49.790;9.958;2022-11-14T05:53:35;35.47;;;21.67;;
5591;SDS011;2818;49.790;9.958;2022-11-14T05:56:03;33.13;;;20.73;;
5591;SDS011;2818;49.790;9.958;2022-11-14T05:58:32;36.77;;;21.63;;
5591;SDS011;2818;49.790;9.958;2022-11-14T06:01:01;36.93;;;21.27;;
5591;SDS011;2818;49.790;9.958;2022-11-14T06:03:32;34.03;;;20.37;;
5591;SDS011;2818;49.790;9.958;2022-11-14T06:06:00;37.83;;;21.53;;
5591;SDS011;2818;49.790;9.958;2022-11-14T06:08:29;41.80;;;22.70;;
5591;SDS011;2818;49.790;9.958;2022-11-14T06:11:00;36.47;;;21.20;;
5591;SDS011;2818;49.790;9.958;2022-11-14T06:13:29;35.10;;;21.93;;
5591;SDS011;2818;49.790;9.958;2022-11-14T06:16:04;37.10;;;22.50;;
5591;SDS011;2818;49.790;9.958;2022-11-14T06:18:32;34.23;;;20.90;;
5591;SDS011;2818;49.790;9.958;2022-11-14T06:21:02;35.37;;;22.40;;
5591;SDS011;2818;49.790;9.958;2022-11-14T06:23:31;35.00;;;21.33;;
5591;SDS011;2818;49.790;9.958;2022-11-14T06:25:59;33.70;;;21.43;;
5591;SDS011;2818;49.790;9.958;2022-11-14T06:28:26;36.70;;;22.13;;
5591;SDS011;2818;49.790;9.958;2022-11-14T06:30:57;37.17;;;22.13;;
5591;SDS011;2818;49.790;9.958;2022-11-14T06:33:31;40.27;;;21.67;;
5591;SDS011;2818;49.790;9.958;2022-11-14T06:36:00;34.83;;;21.17;;
5591;SDS011;2818;49.790;9.958;2022-11-14T06:38:32;34.13;;;21.47;;
5591;SDS011;2818;49.790;9.958;2022-11-14T06:41:04;36.03;;;20.93;;
5591;SDS011;2818;49.790;9.958;2022-11-14T06:43:37;34.80;;;20.30;;
5591;SDS011;2818;49.790;9.958;2022-11-14T06:46:09;32.67;;;21.47;;
5591;SDS011;2818;49.790;9.958;2022-11-14T06:48:38;31.00;;;20.57;;
5591;SDS011;2818;49.790;9.958;2022-11-14T06:51:05;32.33;;;20.23;;
5591;SDS011;2818;49.790;9.958;2022-11-14T06:53:33;35.80;;;21.10;;
5591;SDS011;2818;49.790;9.958;2022-11-14T06:56:02;35.93;;;21.60;;
5591;SDS011;2818;49.790;9.958;2022-11-14T06:58:35;38.20;;;23.23;;
5591;SDS011;2818;49.790;9.958;2022-11-14T07:03:33;36.43;;;21.30;;
5591;SDS011;2818;49.790;9.958;2022-11-14T07:06:00;33.27;;;20.40;;
5591;SDS011;2818;49.790;9.958;2022-11-14T07:08:28;37.53;;;21.67;;
5591;SDS011;2818;49.790;9.958;2022-11-14T07:10:59;35.10;;;21.83;;
5591;SDS011;2818;49.790;9.958;2022-11-14T07:13:28;33.70;;;21.00;;
5591;SDS011;2818;49.790;9.958;2022-11-14T07:15:55;33.67;;;21.00;;
5591;SDS011;2818;49.790;9.958;2022-11-14T07:18:21;34.17;;;21.40;;
5591;SDS011;2818;49.790;9.958;2022-11-14T07:20:48;36.13;;;21.00;;
5591;SDS011;2818;49.790;9.958;2022-11-14T07:23:15;35.50;;;21.10;;
5591;SDS011;2818;49.790;9.958;2022-11-14T07:25:48;32.20;;;19.37;;
5591;SDS011;2818;49.790;9.958;2022-11-14T07:28:14;27.80;;;18.47;;
5591;SDS011;2818;49.790;9.958;2022-11-14T07:30:41;37.20;;;21.10;;
5591;SDS011;2818;49.790;9.958;2022-11-14T07:33:08;36.37;;;21.63;;
5591;SDS011;2818;49.790;9.958;2022-11-14T07:35:39;35.67;;;20.13;;
5591;SDS011;2818;49.790;9.958;2022-11-14T07:38:06;34.23;;;20.20;;
5591;SDS011;2818;49.790;9.958;2022-11-14T07:40:33;34.23;;;21.00;;
5591;SDS011;2818;49.790;9.958;2022-11-14T07:43:00;32.83;;;20.00;;
5591;SDS011;2818;49.790;9.958;2022-11-14T07:45:28;33.43;;;19.30;;
5591;SDS011;2818;49.790;9.958;2022-11-14T07:47:56;34.00;;;20.30;;
5591;SDS011;2818;49.790;9.958;2022-11-14T07:50:24;30.57;;;19.53;;
5591;SDS011;2818;49.790;9.958;2022-11-14T07:52:52;34.43;;;19.00;;
5591;SDS011;2818;49.790;9.958;2022-11-14T07:55:20;30.90;;;17.97;;
5591;SDS011;2818;49.790;9.958;2022-11-14T07:57:51;29.23;;;18.00;;
5591;SDS011;2818;49.790;9.958;2022-11-14T08:00:18;28.70;;;18.03;;
5591;SDS011;2818;49.790;9.958;2022-11-14T08:02:46;27.77;;;17.17;;
5591;SDS011;2818;49.790;9.958;2022-11-14T08:05:13;26.10;;;16.90;;
5591;SDS011;2818;49.790;9.958;2022-11-14T08:07:39;28.30;;;17.77;;
5591;SDS011;2818;49.790;9.958;2022-11-14T08:10:06;28.90;;;17.60;;
5591;SDS011;2818;49.790;9.958;2022-11-14T08:12:34;27.27;;;17.50;;
5591;SDS011;2818;49.790;9.958;2022-11-14T08:15:01;26.47;;;16.67;;
5591;SDS011;2818;49.790;9.958;2022-11-14T08:17:28;27.37;;;17.80;;
5591;SDS011;2818;49.790;9.958;2022-11-14T08:19:54;26.83;;;17.93;;
5591;SDS011;2818;49.790;9.958;2022-11-14T08:22:21;25.27;;;16.90;;
5591;SDS011;2818;49.790;9.958;2022-11-14T08:24:48;28.70;;;18.30;;
5591;SDS011;2818;49.790;9.958;2022-11-14T08:27:15;38.57;;;26.70;;
5591;SDS011;2818;49.790;9.958;2022-11-14T08:29:42;29.67;;;18.90;;
5591;SDS011;2818;49.790;9.958;2022-11-14T08:32:09;28.73;;;18.43;;
5591;SDS011;2818;49.790;9.958;2022-11-14T08:34:36;28.33;;;18.17;;
5591;SDS011;2818;49.790;9.958;2022-11-14T08:37:03;32.47;;;18.20;;
5591;SDS011;2818;49.790;9.958;2022-11-14T08:39:30;28.00;;;17.73;;
5591;SDS011;2818;49.790;9.958;2022-11-14T08:41:57;28.40;;;17.83;;
5591;SDS011;2818;49.790;9.958;2022-11-14T08:44:23;28.83;;;17.70;;
5591;SDS011;2818;49.790;9.958;2022-11-14T08:46:50;27.33;;;16.63;;
5591;SDS011;2818;49.790;9.958;2022-11-14T08:49:17;25.07;;;16.43;;
5591;SDS011;2818;49.790;9.958;2022-11-14T08:51:44;24.37;;;15.93;;
5591;SDS011;2818;49.790;9.958;2022-11-14T08:54:11;25.37;;;16.23;;
5591;SDS011;2818;49.790;9.958;2022-11-14T08:56:38;24.73;;;16.43;;
5591;SDS011;2818;49.790;9.958;2022-11-14T08:59:05;23.43;;;16.20;;
5591;SDS011;2818;49.790;9.958;2022-11-14T09:01:32;26.20;;;16.50;;
5591;SDS011;2818;49.790;9.958;2022-11-14T09:03:59;32.23;;;19.60;;
5591;SDS011;2818;49.790;9.958;2022-11-14T09:06:26;31.20;;;19.00;;
5591;SDS011;2818;49.790;9.958;2022-11-14T09:08:53;35.97;;;20.53;;
5591;SDS011;2818;49.790;9.958;2022-11-14T09:11:20;31.90;;;19.23;;
5591;SDS011;2818;49.790;9.958;2022-11-14T09:13:47;31.33;;;19.77;;
5591;SDS011;2818;49.790;9.958;2022-11-14T09:16:14;34.57;;;20.50;;
5591;SDS011;2818;49.790;9.958;2022-11-14T09:18:41;32.90;;;20.37;;
5591;SDS011;2818;49.790;9.958;2022-11-14T09:21:08;30.17;;;19.50;;
5591;SDS011;2818;49.790;9.958;2022-11-14T09:23:36;28.57;;;19.20;;
5591;SDS011;2818;49.790;9.958;2022-11-14T09:26:03;30.60;;;18.50;;
5591;SDS011;2818;49.790;9.958;2022-11-14T09:28:31;32.33;;;18.80;;
5591;SDS011;2818;49.790;9.958;2022-11-14T09:31:02;33.60;;;20.50;;
5591;SDS011;2818;49.790;9.958;2022-11-14T09:33:30;27.20;;;18.90;;
5591;SDS011;2818;49.790;9.958;2022-11-14T09:35:58;30.10;;;18.93;;
5591;SDS011;2818;49.790;9.958;2022-11-14T09:38:27;29.50;;;20.30;;
5591;SDS011;2818;49.790;9.958;2022-11-14T09:44:10;25.80;;;18.33;;
5591;SDS011;2818;49.790;9.958;2022-11-14T09:46:55;23.57;;;16.37;;
5591;SDS011;2818;49.790;9.958;2022-11-14T09:49:37;30.83;;;21.47;;
5591;SDS011;2818;49.790;9.958;2022-11-14T09:57:36;32.33;;;20.90;;
5591;SDS011;2818;49.790;9.958;2022-11-14T10:00:13;32.37;;;21.17;;
5591;SDS011;2818;49.790;9.958;2022-11-14T10:11:09;23.53;;;17.10;;
5591;SDS011;2818;49.790;9.958;2022-11-14T10:16:17;20.40;;;14.97;;
5591;SDS011;2818;49.790;9.958;2022-11-14T10:19:01;16.00;;;12.87;;
5591;SDS011;2818;49.790;9.958;2022-11-14T10:24:15;14.03;;;11.83;;
5591;SDS011;2818;49.790;9.958;2022-11-14T10:27:00;13.50;;;11.60;;
5591;SDS011;2818;49.790;9.958;2022-11-14T10:35:01;12.10;;;10.80;;
5591;SDS011;2818;49.790;9.958;2022-11-14T10:37:36;13.40;;;11.40;;
5591;SDS011;2818;49.790;9.958;2022-11-14T10:43:17;13.97;;;10.30;;
5591;SDS011;2818;49.790;9.958;2022-11-14T10:48:47;12.57;;;11.27;;
5591;SDS011;2818;49.790;9.958;2022-11-14T10:56:15;12.70;;;10.50;;
5591;SDS011;2818;49.790;9.958;2022-11-14T10:58:43;12.53;;;11.20;;
5591;SDS011;2818;49.790;9.958;2022-11-14T11:06:45;11.50;;;10.40;;
5591;SDS011;2818;49.790;9.958;2022-11-14T11:09:14;12.67;;;11.37;;
5591;SDS011;2818;49.790;9.958;2022-11-14T11:12:13;12.30;;;11.00;;
5591;SDS011;2818;49.790;9.958;2022-11-14T11:14:43;13.13;;;11.80;;
5591;SDS011;2818;49.790;9.958;2022-11-14T11:19:38;12.73;;;11.30;;
5591;SDS011;2818;49.790;9.958;2022-11-14T11:22:08;12.33;;;10.73;;
5591;SDS011;2818;49.790;9.958;2022-11-14T11:24:48;11.23;;;10.17;;
5591;SDS011;2818;49.790;9.958;2022-11-14T11:30:16;13.10;;;11.10;;
5591;SDS011;2818;49.790;9.958;2022-11-14T11:32:45;11.50;;;10.40;;
5591;SDS011;2818;49.790;9.958;2022-11-14T11:35:12;11.10;;;10.20;;
5591;SDS011;2818;49.790;9.958;2022-11-14T11:37:43;11.60;;;9.73;;
5591;SDS011;2818;49.790;9.958;2022-11-14T11:40:23;12.17;;;10.97;;
5591;SDS011;2818;49.790;9.958;2022-11-14T11:42:56;11.10;;;10.00;;
5591;SDS011;2818;49.790;9.958;2022-11-14T11:45:49;10.57;;;9.57;;
5591;SDS011;2818;49.790;9.958;2022-11-14T11:48:19;10.60;;;9.60;;
5591;SDS011;2818;49.790;9.958;2022-11-14T11:50:52;12.50;;;9.90;;
5591;SDS011;2818;49.790;9.958;2022-11-14T11:53:38;11.60;;;10.40;;
5591;SDS011;2818;49.790;9.958;2022-11-14T11:56:21;12.40;;;10.27;;
5591;SDS011;2818;49.790;9.958;2022-11-14T11:58:54;12.30;;;11.00;;
5591;SDS011;2818;49.790;9.958;2022-11-14T12:01:32;11.73;;;10.27;;
5591;SDS011;2818;49.790;9.958;2022-11-14T12:03:59;11.93;;;10.73;;
5591;SDS011;2818;49.790;9.958;2022-11-14T12:06:27;13.10;;;11.20;;
5591;SDS011;2818;49.790;9.958;2022-11-14T12:12:13;14.03;;;9.87;;
5591;SDS011;2818;49.790;9.958;2022-11-14T12:26:34;11.03;;;10.03;;
5591;SDS011;2818;49.790;9.958;2022-11-14T12:32:01;11.43;;;10.23;;
5591;SDS011;2818;49.790;9.958;2022-11-14T12:34:32;12.93;;;10.80;;
5591;SDS011;2818;49.790;9.958;2022-11-14T12:37:09;10.70;;;9.43;;
5591;SDS011;2818;49.790;9.958;2022-11-14T12:39:54;12.30;;;10.27;;
5591;SDS011;2818;49.790;9.958;2022-11-14T12:42:46;11.60;;;9.77;;
5591;SDS011;2818;49.790;9.958;2022-11-14T12:46:01;11.87;;;10.67;;
5591;SDS011;2818;49.790;9.958;2022-11-14T12:50:48;12.10;;;10.53;;
5591;SDS011;2818;49.790;9.958;2022-11-14T12:53:49;12.83;;;10.77;;
5591;SDS011;2818;49.790;9.958;2022-11-14T13:04:27;13.97;;;10.57;;
5591;SDS011;2818;49.790;9.958;2022-11-14T13:07:22;11.13;;;10.13;;
5591;SDS011;2818;49.790;9.958;2022-11-14T13:12:55;11.33;;;10.23;;
5591;SDS011;2818;49.790;9.958;2022-11-14T13:18:35;10.67;;;9.57;;
5591;SDS011;2818;49.790;9.958;2022-11-14T13:21:33;11.13;;;9.97;;
5591;SDS011;2818;49.790;9.958;2022-11-14T13:24:13;11.73;;;10.13;;
5591;SDS011;2818;49.790;9.958;2022-11-14T13:26:45;12.40;;;9.87;;
5591;SDS011;2818;49.790;9.958;2022-11-14T13:32:11;11.43;;;9.33;;
5591;SDS011;2818;49.790;9.958;2022-11-14T13:34:59;9.70;;;8.70;;
5591;SDS011;2818;49.790;9.958;2022-11-14T13:43:04;10.13;;;9.13;;
5591;SDS011;2818;49.790;9.958;2022-11-14T13:46:31;10.30;;;9.20;;
5591;SDS011;2818;49.790;9.958;2022-11-14T13:51:45;9.30;;;8.40;;
5591;SDS011;2818;49.790;9.958;2022-11-14T13:54:13;11.37;;;8.77;;
5591;SDS011;2818;49.790;9.958;2022-11-14T13:57:04;9.20;;;8.30;;
5591;SDS011;2818;49.790;9.958;2022-11-14T14:02:50;9.90;;;8.90;;
5591;SDS011;2818;49.790;9.958;2022-11-14T14:08:25;9.53;;;8.63;;
5591;SDS011;2818;49.790;9.958;2022-11-14T14:16:48;9.53;;;8.53;;
5591;SDS011;2818;49.790;9.958;2022-11-14T14:19:51;9.93;;;8.67;;
5591;SDS011;2818;49.790;9.958;2022-11-14T14:22:34;11.10;;;8.63;;
5591;SDS011;2818;49.790;9.958;2022-11-14T14:28:08;9.23;;;8.33;;
5591;SDS011;2818;49.790;9.958;2022-11-14T14:33:27;9.33;;;8.33;;
5591;SDS011;2818;49.790;9.958;2022-11-14T14:36:14;12.40;;;9.40;;
5591;SDS011;2818;49.790;9.958;2022-11-14T14:38:45;13.50;;;8.90;;
5591;SDS011;2818;49.790;9.958;2022-11-14T14:41:12;15.53;;;9.07;;
5591;SDS011;2818;49.790;9.958;2022-11-14T14:43:42;11.33;;;8.60;;
5591;SDS011;2818;49.790;9.958;2022-11-14T14:46:24;12.63;;;9.97;;
5591;SDS011;2818;49.790;9.958;2022-11-14T14:48:53;13.30;;;9.20;;
5591;SDS011;2818;49.790;9.958;2022-11-14T14:51:28;9.33;;;8.43;;
5591;SDS011;2818;49.790;9.958;2022-11-14T14:54:00;11.70;;;8.40;;
5591;SDS011;2818;49.790;9.958;2022-11-14T14:56:27;9.30;;;8.23;;
5591;SDS011;2818;49.790;9.958;2022-11-14T14:58:54;9.70;;;8.53;;
5591;SDS011;2818;49.790;9.958;2022-11-14T15:01:27;11.07;;;9.00;;
5591;SDS011;2818;49.790;9.958;2022-11-14T15:04:05;9.60;;;8.27;;
5591;SDS011;2818;49.790;9.958;2022-11-14T15:06:36;9.77;;;8.67;;
5591;SDS011;2818;49.790;9.958;2022-11-14T15:09:07;9.50;;;8.50;;
5591;SDS011;2818;49.790;9.958;2022-11-14T15:11:39;11.37;;;7.60;;
5591;SDS011;2818;49.790;9.958;2022-11-14T15:14:09;8.97;;;8.07;;
5591;SDS011;2818;49.790;9.958;2022-11-14T15:16:40;9.50;;;8.17;;
5591;SDS011;2818;49.790;9.958;2022-11-14T15:19:10;9.70;;;8.70;;
5591;SDS011;2818;49.790;9.958;2022-11-14T15:21:40;8.60;;;7.77;;
5591;SDS011;2818;49.790;9.958;2022-11-14T15:24:12;8.90;;;7.60;;
5591;SDS011;2818;49.790;9.958;2022-11-14T15:26:44;9.67;;;8.67;;
5591;SDS011;2818;49.790;9.958;2022-11-14T15:31:49;9.63;;;8.27;;
5591;SDS011;2818;49.790;9.958;2022-11-14T15:34:32;9.33;;;7.90;;
5591;SDS011;2818;49.790;9.958;2022-11-14T15:37:19;9.30;;;7.77;;
5591;SDS011;2818;49.790;9.958;2022-11-14T15:39:47;11.73;;;7.70;;
5591;SDS011;2818;49.790;9.958;2022-11-14T15:42:18;9.20;;;8.30;;
5591;SDS011;2818;49.790;9.958;2022-11-14T15:44:49;8.87;;;7.97;;
5591;SDS011;2818;49.790;9.958;2022-11-14T15:50:18;13.63;;;7.87;;
5591;SDS011;2818;49.790;9.958;2022-11-14T15:52:49;11.37;;;8.80;;
5591;SDS011;2818;49.790;9.958;2022-11-14T15:55:38;10.13;;;7.70;;
5591;SDS011;2818;49.790;9.958;2022-11-14T15:58:08;8.23;;;7.47;;
5591;SDS011;2818;49.790;9.958;2022-11-14T16:00:54;12.47;;;9.50;;
5591;SDS011;2818;49.790;9.958;2022-11-14T16:03:21;14.27;;;8.43;;
5591;SDS011;2818;49.790;9.958;2022-11-14T16:05:49;14.70;;;9.23;;
5591;SDS011;2818;49.790;9.958;2022-11-14T16:08:16;13.33;;;10.33;;
5591;SDS011;2818;49.790;9.958;2022-11-14T16:10:43;12.77;;;11.07;;
5591;SDS011;2818;49.790;9.958;2022-11-14T16:13:10;12.33;;;11.03;;
5591;SDS011;2818;49.790;9.958;2022-11-14T16:15:36;17.43;;;10.93;;
5591;SDS011;2818;49.790;9.958;2022-11-14T16:18:03;12.93;;;10.03;;
5591;SDS011;2818;49.790;9.958;2022-11-14T16:20:31;13.43;;;9.77;;
5591;SDS011;2818;49.790;9.958;2022-11-14T16:23:03;13.17;;;11.40;;
5591;SDS011;2818;49.790;9.958;2022-11-14T16:25:30;14.40;;;11.20;;
5591;SDS011;2818;49.790;9.958;2022-11-14T16:27:57;11.93;;;9.83;;
5591;SDS011;2818;49.790;9.958;2022-11-14T16:30:24;16.13;;;9.90;;
5591;SDS011;2818;49.790;9.958;2022-11-14T16:32:51;11.53;;;10.40;;
5591;SDS011;2818;49.790;9.958;2022-11-14T16:35:22;19.37;;;14.20;;
5591;SDS011;2818;49.790;9.958;2022-11-14T16:37:51;18.17;;;13.10;;
5591;SDS011;2818;49.790;9.958;2022-11-14T16:40:20;12.50;;;10.03;;
5591;SDS011;2818;49.790;9.958;2022-11-14T16:42:50;11.33;;;8.30;;
5591;SDS011;2818;49.790;9.958;2022-11-14T16:45:20;8.70;;;7.33;;
5591;SDS011;2818;49.790;9.958;2022-11-14T16:47:47;10.83;;;8.10;;
5591;SDS011;2818;49.790;9.958;2022-11-14T16:50:15;7.70;;;7.00;;
5591;SDS011;2818;49.790;9.958;2022-11-14T16:52:42;6.60;;;6.00;;
5591;SDS011;2818;49.790;9.958;2022-11-14T16:55:09;8.30;;;6.50;;
5591;SDS011;2818;49.790;9.958;2022-11-14T16:57:37;9.47;;;7.70;;
5591;SDS011;2818;49.790;9.958;2022-11-14T17:00:05;10.30;;;8.03;;
5591;SDS011;2818;49.790;9.958;2022-11-14T17:02:34;16.97;;;14.27;;
5591;SDS011;2818;49.790;9.958;2022-11-14T17:05:01;10.87;;;8.10;;
5591;SDS011;2818;49.790;9.958;2022-11-14T17:07:28;32.10;;;16.27;;
5591;SDS011;2818;49.790;9.958;2022-11-14T17:09:58;117.53;;;35.90;;
5591;SDS011;2818;49.790;9.958;2022-11-14T17:12:26;57.63;;;20.73;;